createdAt,value
2018-07-10T00:02:15.281Z,100144.97
2018-07-10T00:04:58.808Z,100142.66
2018-07-10T00:08:15.734Z,100156.05
2018-07-10T00:11:24.210Z,100150.73
2018-07-10T00:13:54.010Z,100149.28
2018-07-10T00:16:24.281Z,100142.48
2018-07-10T00:18:54.972Z,100138.58
2018-07-10T00:21:26.057Z,100151.22
2018-07-10T00:23:56.531Z,100147.61
2018-07-10T00:26:27.456Z,100154.80
2018-07-10T00:28:59.060Z,100154.19
2018-07-10T00:31:29.939Z,100151.12
2018-07-10T00:34:00.613Z,100154.26
2018-07-10T00:36:31.524Z,100145.47
2018-07-10T00:39:05.456Z,100150.79
2018-07-10T00:41:37.279Z,100152.87
2018-07-10T00:44:08.211Z,100148.73
2018-07-10T00:46:39.687Z,100150.49
2018-07-10T00:49:09.701Z,100150.32
2018-07-10T00:51:41.788Z,100152.54
2018-07-10T00:54:11.638Z,100152.06
2018-07-10T00:56:41.594Z,100151.08
2018-07-10T00:59:11.649Z,100156.06
2018-07-10T01:01:42.043Z,100147.50
2018-07-10T01:04:12.609Z,100140.73
2018-07-10T01:06:43.535Z,100144.23
2018-07-10T01:09:15.868Z,100147.05
2018-07-10T01:11:45.765Z,100146.06
2018-07-10T01:14:16.590Z,100137.38
2018-07-10T01:16:47.568Z,100134.81
2018-07-10T01:19:18.586Z,100140.39
2018-07-10T01:21:50.220Z,100133.18
2018-07-10T01:24:20.292Z,100125.46
2018-07-10T01:26:52.048Z,100123.50
2018-07-10T01:29:29.124Z,100116.36
2018-07-10T01:31:59.200Z,100116.59
2018-07-10T01:34:29.178Z,100112.34
2018-07-10T01:36:59.248Z,100111.42
2018-07-10T01:39:29.153Z,100115.28
2018-07-10T01:41:59.123Z,100113.95
2018-07-10T01:44:29.227Z,100111.80
2018-07-10T01:46:59.773Z,100111.12
2018-07-10T01:49:38.066Z,100110.63
2018-07-10T01:52:08.357Z,100103.48
2018-07-10T01:54:38.665Z,100108.36
2018-07-10T01:57:08.925Z,100107.56
2018-07-10T01:59:39.417Z,100100.84
2018-07-10T02:02:09.295Z,100103.56
2018-07-10T02:04:39.617Z,100102.33
2018-07-10T02:07:09.593Z,100104.21
2018-07-10T02:09:39.437Z,100103.98
2018-07-10T02:12:09.290Z,100106.47
2018-07-10T02:14:39.391Z,100105.34
2018-07-10T02:17:10.363Z,100108.14
2018-07-10T02:19:41.384Z,100107.72
2018-07-10T02:22:12.366Z,100112.89
2018-07-10T02:24:44.427Z,100108.34
2018-07-10T02:27:15.023Z,100111.45
2018-07-10T02:29:46.026Z,100091.92
2018-07-10T02:32:17.409Z,100105.56
2018-07-10T02:34:47.290Z,100107.63
2018-07-10T02:37:18.753Z,100104.62
2018-07-10T02:39:49.603Z,100103.29
2018-07-10T02:42:20.606Z,100112.69
2018-07-10T02:44:51.709Z,100111.22
2018-07-10T02:47:22.965Z,100112.66
2018-07-10T02:49:53.759Z,100117.33
2018-07-10T02:52:24.619Z,100124.45
2018-07-10T02:54:55.966Z,100118.64
2018-07-10T02:57:26.708Z,100115.88
2018-07-10T02:59:58.353Z,100109.66
2018-07-10T03:02:29.394Z,100107.86
2018-07-10T03:05:02.030Z,100111.26
2018-07-10T03:07:32.764Z,100113.23
2018-07-10T03:10:03.378Z,100120.66
2018-07-10T03:12:38.047Z,100120.75
2018-07-10T03:15:13.765Z,100118.16
2018-07-10T03:17:44.630Z,100115.26
2018-07-10T03:20:14.712Z,100117.81
2018-07-10T03:22:44.630Z,100119.56
2018-07-10T03:25:14.559Z,100127.83
2018-07-10T03:27:44.579Z,100127.07
2018-07-10T03:30:14.953Z,100124.16
2018-07-10T03:32:45.699Z,100131.41
2018-07-10T03:35:15.674Z,100131.80
2018-07-10T03:37:45.989Z,100128.15
2018-07-10T03:40:16.720Z,100133.83
2018-07-10T03:42:46.937Z,100125.69
2018-07-10T03:45:17.471Z,100126.58
2018-07-10T03:47:47.486Z,100126.98
2018-07-10T03:50:17.552Z,100127.83
2018-07-10T03:52:48.543Z,100130.69
2018-07-10T03:55:20.701Z,100131.09
2018-07-10T03:57:53.833Z,100127.59
2018-07-10T04:00:24.050Z,100132.12
2018-07-10T04:02:54.540Z,100135.52
2018-07-10T04:05:25.591Z,100139.75
2018-07-10T04:07:57.975Z,100138.67
2018-07-10T04:10:32.946Z,100138.36
2018-07-10T04:13:20.531Z,100142.38
2018-07-10T04:15:55.761Z,100147.33
2018-07-10T04:18:28.353Z,100143.31
2018-07-10T04:21:08.037Z,100137.95
2018-07-10T04:23:40.067Z,100130.95
2018-07-10T04:26:18.940Z,100131.58
2018-07-10T04:28:56.098Z,100137.48
2018-07-10T04:31:58.841Z,100132.34
2018-07-10T04:34:31.006Z,100130.42
2018-07-10T04:37:11.060Z,100129.75
2018-07-10T04:39:42.202Z,100134.39
2018-07-10T04:42:25.288Z,100139.23
2018-07-10T04:45:04.966Z,100149.15
2018-07-10T04:47:55.230Z,100148.75
2018-07-10T04:50:35.721Z,100151.74
2018-07-10T04:53:14.069Z,100156.08
2018-07-10T04:55:44.393Z,100153.08
2018-07-10T04:58:21.039Z,100149.46
2018-07-10T05:00:55.790Z,100145.03
2018-07-10T05:03:28.177Z,100142.85
2018-07-10T05:06:00.685Z,100143.48
2018-07-10T05:08:30.766Z,100150.94
2018-07-10T05:11:01.816Z,100145.36
2018-07-10T05:13:32.361Z,100152.91
2018-07-10T05:16:05.106Z,100156.31
2018-07-10T05:18:36.547Z,100158.59
2018-07-10T05:21:14.410Z,100157.96
2018-07-10T05:23:45.178Z,100162.11
2018-07-10T05:26:16.761Z,100161.40
2018-07-10T05:28:52.107Z,100164.39
2018-07-10T05:31:23.569Z,100170.70
2018-07-10T05:33:53.726Z,100172.98
2018-07-10T05:36:25.103Z,100175.66
2018-07-10T05:39:01.886Z,100170.80
2018-07-10T05:41:32.139Z,100172.05
2018-07-10T05:44:02.158Z,100174.23
2018-07-10T05:46:32.146Z,100167.20
2018-07-10T05:49:05.098Z,100172.77
2018-07-10T05:51:39.623Z,100166.67
2018-07-10T05:54:09.876Z,100171.33
2018-07-10T05:56:39.886Z,100177.54
2018-07-10T05:59:09.777Z,100173.06
2018-07-10T06:01:40.876Z,100188.02
2018-07-10T06:04:13.902Z,100182.23
2018-07-10T06:06:43.997Z,100186.89
2018-07-10T06:09:16.950Z,100190.91
2018-07-10T06:11:47.617Z,100190.78
2018-07-10T06:14:17.789Z,100187.29
2018-07-10T06:16:47.884Z,100180.98
2018-07-10T06:19:18.198Z,100186.44
2018-07-10T06:21:49.961Z,100186.84
2018-07-10T06:24:29.266Z,100190.63
2018-07-10T06:27:03.546Z,100192.95
2018-07-10T06:30:11.731Z,100193.75
2018-07-10T06:32:52.062Z,100194.47
2018-07-10T06:35:32.404Z,100192.50
2018-07-10T06:38:03.090Z,100195.36
2018-07-10T06:40:37.807Z,100189.10
2018-07-10T06:43:18.182Z,100190.23
2018-07-10T06:45:48.486Z,100190.86
2018-07-10T06:48:18.757Z,100191.39
2018-07-10T06:50:49.180Z,100193.86
2018-07-10T06:53:21.193Z,100192.83
2018-07-10T06:55:57.781Z,100191.80
2018-07-10T06:58:32.018Z,100185.75
2018-07-10T07:01:02.122Z,100195.77
2018-07-10T07:03:32.239Z,100180.80
2018-07-10T07:06:02.524Z,100186.30
2018-07-10T07:08:32.850Z,100177.72
2018-07-10T07:11:05.492Z,100184.24
2018-07-10T07:13:35.744Z,100190.63
2018-07-10T07:16:06.139Z,100196.31
2018-07-10T07:18:36.057Z,100199.31
2018-07-10T07:21:06.177Z,100201.68
2018-07-10T07:23:36.153Z,100199.31
2018-07-10T07:26:06.241Z,100209.51
2018-07-10T07:28:36.146Z,100206.33
2018-07-10T07:31:06.086Z,100198.52
2018-07-10T07:33:36.337Z,100210.58
2018-07-10T07:36:06.638Z,100209.87
2018-07-10T07:38:36.886Z,100211.52
2018-07-10T07:41:17.640Z,100216.27
2018-07-10T07:43:48.349Z,100210.89
2018-07-10T07:46:18.737Z,100204.81
2018-07-10T07:48:48.881Z,100225.03
2018-07-10T07:51:18.809Z,100234.16
2018-07-10T07:53:48.880Z,100253.97
2018-07-10T07:56:18.957Z,100266.08
2018-07-10T07:58:48.930Z,100282.55
2018-07-10T08:01:19.023Z,100294.86
2018-07-10T08:03:49.193Z,100290.11
2018-07-10T08:06:19.709Z,100290.75
2018-07-10T08:08:50.341Z,100284.97
2018-07-10T08:11:20.978Z,100285.84
2018-07-10T08:13:58.077Z,100290.50
2018-07-10T08:16:28.183Z,100292.23
2018-07-10T08:18:58.308Z,100288.60
2018-07-10T08:21:29.373Z,100288.28
2018-07-10T08:23:59.746Z,100267.66
2018-07-10T08:26:29.952Z,100265.72
2018-07-10T08:29:00.128Z,100264.80
2018-07-10T08:31:30.181Z,100272.30
2018-07-10T08:34:00.348Z,100266.81
2018-07-10T08:36:30.750Z,100263.84
2018-07-10T08:39:00.962Z,100267.00
2018-07-10T08:41:40.577Z,100270.79
2018-07-10T08:44:10.777Z,100265.97
2018-07-10T08:46:40.865Z,100268.41
2018-07-10T08:49:12.549Z,100250.56
2018-07-10T08:51:42.881Z,100239.52
2018-07-10T08:54:13.040Z,100230.53
2018-07-10T08:56:43.051Z,100229.67
2018-07-10T08:59:13.324Z,100229.19
2018-07-10T09:01:43.627Z,100233.84
2018-07-10T09:04:14.158Z,100233.30
2018-07-10T09:06:44.285Z,100235.98
2018-07-10T09:09:14.498Z,100235.27
2018-07-10T09:11:45.264Z,100236.84
2018-07-10T09:14:16.547Z,100235.73
2018-07-10T09:16:47.240Z,100235.58
2018-07-10T09:19:22.386Z,100240.37
2018-07-10T09:21:58.433Z,100231.52
2018-07-10T09:24:28.994Z,100222.53
2018-07-10T09:26:59.113Z,100234.06
2018-07-10T09:29:29.469Z,100242.52
2018-07-10T09:32:00.121Z,100251.69
2018-07-10T09:34:30.300Z,100259.96
2018-07-10T09:37:00.390Z,100261.23
2018-07-10T09:39:30.922Z,100256.70
2018-07-10T09:42:01.004Z,100242.23
2018-07-10T09:44:31.175Z,100224.05
2018-07-10T09:47:01.256Z,100206.66
2018-07-10T09:49:31.895Z,100200.62
2018-07-10T09:52:01.838Z,100208.92
2018-07-10T09:54:32.010Z,100226.95
2018-07-10T09:57:02.255Z,100234.06
2018-07-10T09:59:32.605Z,100229.91
2018-07-10T10:02:07.710Z,100222.61
2018-07-10T10:04:37.886Z,100225.95
2018-07-10T10:07:07.871Z,100226.05
2018-07-10T10:09:37.913Z,100233.39
2018-07-10T10:12:07.879Z,100226.17
2018-07-10T10:14:38.011Z,100221.45
2018-07-10T10:17:08.006Z,100213.52
2018-07-10T10:19:38.266Z,100227.25
2018-07-10T10:22:08.482Z,100229.94
2018-07-10T10:24:39.111Z,100238.62
2018-07-10T10:27:09.298Z,100242.09
2018-07-10T10:29:39.467Z,100242.06
2018-07-10T10:32:09.939Z,100215.50
2018-07-10T10:34:39.961Z,100199.02
2018-07-10T10:37:10.046Z,100190.45
2018-07-10T10:39:40.036Z,100191.67
2018-07-10T10:42:10.512Z,100196.42
2018-07-10T10:44:40.923Z,100192.73
2018-07-10T10:47:11.285Z,100182.63
2018-07-10T10:49:41.429Z,100167.13
2018-07-10T10:52:11.406Z,100158.95
2018-07-10T10:54:41.717Z,100154.11
2018-07-10T10:57:11.893Z,100166.91
2018-07-10T10:59:42.681Z,100172.99
2018-07-10T11:02:12.860Z,100181.36
2018-07-10T11:04:42.967Z,100177.33
2018-07-10T11:07:13.211Z,100173.14
2018-07-10T11:09:43.308Z,100174.38
2018-07-10T11:12:13.535Z,100164.86
2018-07-10T11:14:45.849Z,100152.35
2018-07-10T11:17:26.870Z,100149.55
2018-07-10T11:20:07.450Z,100153.16
2018-07-10T11:22:46.207Z,100150.17
2018-07-10T11:25:16.338Z,100151.30
2018-07-10T11:27:55.434Z,100152.03
2018-07-10T11:30:25.703Z,100150.67
2018-07-10T11:32:55.783Z,100152.77
2018-07-10T11:35:26.194Z,100148.33
2018-07-10T11:37:57.499Z,100155.14
2018-07-10T11:40:27.949Z,100153.78
2018-07-10T11:42:58.002Z,100144.59
2018-07-10T11:45:27.951Z,100149.55
2018-07-10T11:47:57.774Z,100132.23
2018-07-10T11:50:31.233Z,100125.91
2018-07-10T11:53:01.221Z,100118.23
2018-07-10T11:55:31.282Z,100121.80
2018-07-10T11:58:01.394Z,100122.31
2018-07-10T12:00:31.785Z,100125.37
2018-07-10T12:03:01.900Z,100130.73
2018-07-10T12:05:36.846Z,100133.21
2018-07-10T12:08:06.978Z,100131.02
2018-07-10T12:10:37.826Z,100129.00
2018-07-10T12:13:08.117Z,100131.78
2018-07-10T12:15:38.527Z,100125.56
2018-07-10T12:18:09.009Z,100123.98
2018-07-10T12:20:42.135Z,100122.56
2018-07-10T12:23:13.281Z,100125.08
2018-07-10T12:25:44.730Z,100120.16
2018-07-10T12:28:15.925Z,100114.31
2018-07-10T12:30:46.001Z,100123.81
2018-07-10T12:33:15.971Z,100130.86
2018-07-10T12:35:45.945Z,100142.83
2018-07-10T12:38:15.861Z,100139.50
2018-07-10T12:40:46.209Z,100143.69
2018-07-10T12:43:16.501Z,100132.53
2018-07-10T12:45:46.801Z,100138.66
2018-07-10T12:48:16.737Z,100135.90
2018-07-10T12:50:46.966Z,100132.86
2018-07-10T12:53:21.226Z,100130.33
2018-07-10T12:55:51.309Z,100122.77
2018-07-10T12:58:21.367Z,100115.23
2018-07-10T13:00:51.737Z,100113.96
2018-07-10T13:03:23.886Z,100122.30
2018-07-10T13:05:57.533Z,100131.23
2018-07-10T13:08:28.084Z,100136.97
2018-07-10T13:10:58.261Z,100152.28
2018-07-10T13:13:28.195Z,100151.05
2018-07-10T13:15:58.279Z,100154.33
2018-07-10T13:18:31.025Z,100150.45
2018-07-10T13:21:01.055Z,100140.12
2018-07-10T13:23:31.049Z,100133.34
2018-07-10T13:26:01.197Z,100128.56
2018-07-10T13:28:31.265Z,100133.28
2018-07-10T13:31:01.579Z,100135.87
2018-07-10T13:33:31.523Z,100142.17
2018-07-10T13:36:01.681Z,100134.88
2018-07-10T13:38:31.625Z,100139.13
2018-07-10T13:41:03.243Z,100137.57
2018-07-10T13:43:33.271Z,100136.87
2018-07-10T13:46:03.339Z,100128.69
2018-07-10T13:48:33.333Z,100114.98
2018-07-10T13:51:03.678Z,100117.17
2018-07-10T13:53:33.678Z,100116.65
2018-07-10T13:56:03.802Z,100106.84
2018-07-10T13:58:34.433Z,100113.42
2018-07-10T14:01:09.689Z,100114.09
2018-07-10T14:03:39.732Z,100114.37
2018-07-10T14:06:10.191Z,100112.42
2018-07-10T14:08:40.137Z,100111.78
2018-07-10T14:11:10.241Z,100108.83
2018-07-10T14:13:40.274Z,100111.45
2018-07-10T14:16:10.270Z,100109.59
2018-07-10T14:18:40.296Z,100113.31
2018-07-10T14:21:10.725Z,100115.23
2018-07-10T14:23:40.781Z,100102.63
2018-07-10T14:26:10.769Z,100099.34
2018-07-10T14:28:42.256Z,100098.45
2018-07-10T14:31:12.259Z,100102.97
2018-07-10T14:33:42.398Z,100099.13
2018-07-10T14:36:12.783Z,100097.62
2018-07-10T14:38:43.747Z,100090.67
2018-07-10T14:41:15.091Z,100099.50
2018-07-10T14:43:47.362Z,100091.61
2018-07-10T14:46:21.253Z,100088.89
2018-07-10T14:49:00.830Z,100077.77
2018-07-10T14:52:01.736Z,100071.69
2018-07-10T14:54:33.637Z,100062.11
2018-07-10T14:57:04.584Z,100065.91
2018-07-10T14:59:35.913Z,100067.05
2018-07-10T15:02:06.683Z,100068.44
2018-07-10T15:04:37.474Z,100066.32
2018-07-10T15:07:08.305Z,100057.64
2018-07-10T15:09:39.682Z,100057.25
2018-07-10T15:12:10.590Z,100054.37
2018-07-10T15:14:41.381Z,100065.98
2018-07-10T15:17:17.268Z,100062.88
2018-07-10T15:19:47.244Z,100054.27
2018-07-10T15:22:17.029Z,100055.11
2018-07-10T15:24:57.941Z,100052.52
2018-07-10T15:27:28.087Z,100046.04
2018-07-10T15:29:58.152Z,100043.27
2018-07-10T15:32:28.135Z,100044.55
2018-07-10T15:34:58.561Z,100042.25
2018-07-10T15:37:28.751Z,100044.44
2018-07-10T15:39:58.822Z,100045.94
2018-07-10T15:42:29.389Z,100052.77
2018-07-10T15:44:59.427Z,100050.77
2018-07-10T15:47:29.331Z,100049.59
2018-07-10T15:49:59.434Z,100043.13
2018-07-10T15:52:29.283Z,100045.32
2018-07-10T15:54:59.126Z,100045.17
2018-07-10T15:57:29.333Z,100044.84
2018-07-10T15:59:59.357Z,100048.47
2018-07-10T16:02:29.295Z,100042.46
2018-07-10T16:05:00.423Z,100047.70
2018-07-10T16:07:31.844Z,100047.84
2018-07-10T16:10:02.683Z,100035.56
2018-07-10T16:12:33.810Z,100033.21
2018-07-10T16:15:04.895Z,100038.69
2018-07-10T16:17:35.682Z,100035.59
2018-07-10T16:20:10.422Z,100038.00
2018-07-10T16:22:41.818Z,100036.77
2018-07-10T16:25:25.177Z,100032.41
2018-07-10T16:27:56.329Z,100031.82
2018-07-10T16:30:27.173Z,100037.49
2018-07-10T16:32:57.484Z,100039.44
2018-07-10T16:35:30.510Z,100040.45
2018-07-10T16:38:02.165Z,100048.86
2018-07-10T16:40:32.261Z,100046.63
2018-07-10T16:43:02.677Z,100049.48
2018-07-10T16:48:06.301Z,100048.09
2018-07-10T16:50:39.856Z,100049.80
2018-07-10T16:53:10.477Z,100048.22
2018-07-10T16:55:41.066Z,100053.53
2018-07-10T16:58:10.983Z,100051.88
2018-07-10T17:00:41.006Z,100062.91
2018-07-10T17:03:11.069Z,100060.56
2018-07-10T17:05:40.841Z,100064.50
2018-07-10T17:08:10.881Z,100064.79
2018-07-10T17:10:40.929Z,100072.14
2018-07-10T17:13:10.989Z,100068.67
2018-07-10T17:15:41.194Z,100072.02
2018-07-10T17:18:11.266Z,100079.91
2018-07-10T17:20:41.607Z,100086.08
2018-07-10T17:23:12.045Z,100096.30
2018-07-10T17:25:42.341Z,100095.16
2018-07-10T17:28:15.638Z,100090.69
2018-07-10T17:30:45.700Z,100100.15
2018-07-10T17:33:18.960Z,100104.08
2018-07-10T17:35:49.147Z,100110.11
2018-07-10T17:38:19.485Z,100115.63
2018-07-10T17:40:49.635Z,100120.95
2018-07-10T17:43:19.657Z,100120.82
2018-07-10T17:45:49.570Z,100121.66
2018-07-10T17:48:19.673Z,100126.09
2018-07-10T17:50:49.711Z,100122.93
2018-07-10T17:53:19.873Z,100120.04
2018-07-10T17:55:49.883Z,100122.30
2018-07-10T17:58:22.639Z,100116.59
2018-07-10T18:00:52.868Z,100121.39
2018-07-10T18:03:23.941Z,100130.04
2018-07-10T18:05:54.974Z,100124.19
2018-07-10T18:08:25.355Z,100127.23
2018-07-10T18:10:55.719Z,100135.33
2018-07-10T18:13:25.995Z,100124.33
2018-07-10T18:16:05.951Z,100125.76
2018-07-10T18:18:36.434Z,100118.47
2018-07-10T18:21:07.389Z,100116.81
2018-07-10T18:23:37.810Z,100111.42
2018-07-10T18:26:08.222Z,100103.61
2018-07-10T18:28:44.337Z,100100.61
2018-07-10T18:31:14.862Z,100101.13
2018-07-10T18:33:45.509Z,100101.08
2018-07-10T18:36:16.727Z,100094.24
2018-07-10T18:38:47.018Z,100096.73
2018-07-10T18:41:17.972Z,100100.64
2018-07-10T18:43:48.553Z,100115.48
2018-07-10T18:46:18.796Z,100111.35
2018-07-10T18:48:49.873Z,100106.95
2018-07-10T18:51:21.990Z,100111.59
2018-07-10T18:53:52.874Z,100109.95
2018-07-10T18:56:23.564Z,100113.70
2018-07-10T18:59:03.448Z,100121.50
2018-07-10T19:01:46.408Z,100119.55
2018-07-10T19:04:16.944Z,100121.36
2018-07-10T19:06:54.496Z,100124.52
2018-07-10T19:09:33.843Z,100116.62
2018-07-10T19:12:08.633Z,100116.87
2018-07-10T19:14:39.293Z,100121.97
2018-07-10T19:17:15.179Z,100133.27
2018-07-10T19:19:48.668Z,100134.27
2018-07-10T19:22:19.897Z,100131.48
2018-07-10T19:24:50.398Z,100129.53
2018-07-10T19:27:26.647Z,100136.22
2018-07-10T19:30:03.247Z,100133.43
2018-07-10T19:32:34.495Z,100130.67
2018-07-10T19:35:05.203Z,100126.48
2018-07-10T19:37:46.583Z,100122.88
2018-07-10T19:40:23.706Z,100130.08
2018-07-10T19:42:54.253Z,100121.30
2018-07-10T19:45:24.479Z,100124.95
2018-07-10T19:48:06.006Z,100117.66
2018-07-10T19:50:39.938Z,100113.59
2018-07-10T19:53:10.183Z,100113.72
2018-07-10T19:55:43.691Z,100112.55
2018-07-10T19:58:20.457Z,100109.23
2018-07-10T20:01:00.538Z,100113.52
2018-07-10T20:03:39.318Z,100113.28
2018-07-10T20:06:12.899Z,100113.41
2018-07-10T20:08:47.684Z,100112.33
2018-07-10T20:11:27.249Z,100117.98
2018-07-10T20:13:57.798Z,100116.67
2018-07-10T20:16:39.295Z,100108.62
2018-07-10T20:19:14.425Z,100098.95
2018-07-10T20:24:03.290Z,100100.19
2018-07-10T20:26:43.002Z,100101.72
2018-07-10T20:31:26.736Z,100103.20
2018-07-10T20:34:12.946Z,100104.15
2018-07-10T20:36:47.590Z,100096.20
2018-07-10T20:39:19.966Z,100088.68
2018-07-10T20:41:50.637Z,100104.90
2018-07-10T20:44:21.501Z,100101.52
2018-07-10T20:46:58.154Z,100101.42
2018-07-10T20:49:35.443Z,100095.95
2018-07-10T20:52:07.462Z,100093.70
2018-07-10T20:54:44.706Z,100099.20
2018-07-10T20:57:20.948Z,100103.36
2018-07-10T20:59:54.280Z,100095.71
2018-07-10T21:02:36.285Z,100084.03
2018-07-10T21:05:10.786Z,100079.08
2018-07-10T21:07:57.363Z,100079.70
2018-07-10T21:11:07.246Z,100084.48
2018-07-10T21:13:58.817Z,100075.60
2018-07-10T21:16:55.495Z,100080.14
2018-07-10T21:19:31.885Z,100083.56
2018-07-10T21:24:33.118Z,100087.82
2018-07-10T21:27:09.071Z,100085.25
2018-07-10T21:29:52.101Z,100091.97
2018-07-10T21:32:30.573Z,100084.63
2018-07-10T21:35:03.568Z,100084.02
2018-07-10T21:38:44.463Z,100086.62
2018-07-10T21:42:21.892Z,100086.02
2018-07-10T21:47:04.404Z,100079.83
2018-07-10T21:49:50.249Z,100096.16
2018-07-10T21:52:20.339Z,100100.81
2018-07-10T21:54:50.540Z,100108.42
2018-07-10T21:57:27.237Z,100111.11
2018-07-10T21:59:58.792Z,100117.73
2018-07-10T22:02:31.012Z,100111.23
2018-07-10T22:05:01.549Z,100106.36
2018-07-10T22:07:31.857Z,100107.31
2018-07-10T22:10:06.014Z,100102.25
2018-07-10T22:12:44.776Z,100094.92
2018-07-10T22:15:14.804Z,100086.32
2018-07-10T22:17:45.369Z,100092.88
2018-07-10T22:20:15.758Z,100094.64
2018-07-10T22:22:45.640Z,100100.94
2018-07-10T22:25:15.717Z,100099.69
2018-07-10T22:27:46.010Z,100109.91
2018-07-10T22:30:22.311Z,100114.63
2018-07-10T22:32:54.829Z,100111.53
2018-07-10T22:35:25.761Z,100112.16
2018-07-10T22:37:55.868Z,100113.17
2018-07-10T22:40:25.934Z,100114.52
2018-07-10T22:42:55.942Z,100111.64
2018-07-10T22:45:26.563Z,100109.99
2018-07-10T22:47:56.653Z,100111.42
2018-07-10T22:50:27.296Z,100113.61
2018-07-10T22:53:00.322Z,100117.10
2018-07-10T22:55:33.264Z,100115.04
2018-07-10T22:58:08.952Z,100119.59
2018-07-10T23:00:40.161Z,100116.60
2018-07-10T23:03:18.754Z,100121.35
2018-07-10T23:05:50.564Z,100116.48
2018-07-10T23:08:26.259Z,100110.80
2018-07-10T23:10:56.610Z,100101.94
2018-07-10T23:13:26.745Z,100094.30
2018-07-10T23:15:57.790Z,100098.22
2018-07-10T23:18:27.806Z,100092.13
2018-07-10T23:20:57.779Z,100085.73
2018-07-10T23:23:28.033Z,100091.10
2018-07-10T23:25:58.114Z,100086.04
2018-07-10T23:28:28.220Z,100085.73
2018-07-10T23:30:58.573Z,100088.61
2018-07-10T23:33:28.858Z,100082.11
2018-07-10T23:35:59.893Z,100075.91
2018-07-10T23:38:40.173Z,100076.12
2018-07-10T23:41:16.853Z,100078.50
2018-07-10T23:43:48.970Z,100074.66
2018-07-10T23:46:25.820Z,100076.23
2018-07-10T23:48:59.501Z,100071.89
2018-07-10T23:51:30.467Z,100074.27
2018-07-10T23:54:00.828Z,100061.88
2018-07-10T23:56:31.254Z,100054.86
2018-07-10T23:59:01.110Z,100055.58
